Time;durP1;ratioP1;P1;durP2;ratioP2;P2;SDS_P1;SDS_P2;PMS_P1;PMS_P2;Temp;Humidity;BMP_temperature;BMP_pressure;BME280_temperature;BME280_humidity;BME280_pressure;Samples;Min_cycle;Max_cycle;Signal;HPM_P1;HPM_P2
2022/12/05 00:01:26;;;;;;;30.00;18.20;;;3.70;99.90;;;;;;5071489;28;20213;-76
2022/12/05 00:03:54;;;;;;;35.17;18.93;;;3.60;99.90;;;;;;5071288;28;20181;-76
2022/12/05 00:06:22;;;;;;;32.70;22.73;;;3.60;99.90;;;;;;5072573;28;20271;-76
2022/12/05 00:08:48;;;;;;;32.50;21.70;;;3.60;99.90;;;;;;5071063;28;20193;-77
2022/12/05 00:11:17;;;;;;;34.03;19.53;;;3.60;99.90;;;;;;5092866;28;20208;-76
2022/12/05 00:13:44;;;;;;;31.77;18.73;;;3.60;99.90;;;;;;5091581;28;20260;-76
2022/12/05 00:16:13;;;;;;;31.53;17.03;;;3.60;99.90;;;;;;5092884;28;20258;-77
2022/12/05 00:18:39;;;;;;;30.27;18.80;;;3.60;99.90;;;;;;5091532;28;20204;-77
2022/12/05 00:21:06;;;;;;;25.73;18.30;;;3.60;99.90;;;;;;5073063;28;20200;-77
2022/12/05 00:23:32;;;;;;;32.13;20.87;;;3.60;99.90;;;;;;5071399;28;20685;-77
2022/12/05 00:26:02;;;;;;;25.20;16.83;;;3.50;99.90;;;;;;5072446;28;20188;-77
2022/12/05 00:28:29;;;;;;;26.30;17.30;;;3.60;99.90;;;;;;5071155;28;20188;-77
2022/12/05 00:30:55;;;;;;;25.37;16.60;;;3.60;99.90;;;;;;5070779;28;20269;-77
2022/12/05 00:33:20;;;;;;;26.37;16.53;;;3.60;99.90;;;;;;5078864;22;20233;-77
2022/12/05 00:35:46;;;;;;;22.77;15.90;;;3.60;99.90;;;;;;5054447;28;20185;-77
2022/12/05 00:38:12;;;;;;;24.83;15.57;;;3.60;99.90;;;;;;5072024;28;20591;-77
2022/12/05 00:40:38;;;;;;;27.27;15.90;;;3.60;99.90;;;;;;5054470;28;20180;-77
2022/12/05 00:43:03;;;;;;;26.10;16.97;;;3.60;99.90;;;;;;5092851;28;20201;-75
2022/12/05 00:45:29;;;;;;;25.07;15.33;;;3.60;99.90;;;;;;5076500;28;20181;-77
2022/12/05 00:47:55;;;;;;;21.03;15.40;;;3.60;99.90;;;;;;5077400;28;20190;-77
2022/12/05 00:50:21;;;;;;;27.63;17.27;;;3.60;99.90;;;;;;5055534;28;20185;-77
2022/12/05 00:52:46;;;;;;;25.33;16.63;;;3.60;99.90;;;;;;5072030;28;20206;-77
2022/12/05 00:55:12;;;;;;;22.93;16.57;;;3.60;99.90;;;;;;5054654;28;20204;-77
2022/12/05 00:57:38;;;;;;;24.33;16.60;;;3.50;99.90;;;;;;5053970;28;20211;-77
2022/12/05 01:00:05;;;;;;;21.80;15.70;;;3.60;99.90;;;;;;5064722;28;20242;-77
2022/12/05 01:02:31;;;;;;;23.60;17.43;;;3.60;99.90;;;;;;5070900;28;20208;-76
2022/12/05 01:04:56;;;;;;;24.80;19.07;;;3.60;99.90;;;;;;5070820;28;20180;-76
2022/12/05 01:07:22;;;;;;;23.73;17.73;;;3.60;99.90;;;;;;5070569;28;20677;-76
2022/12/05 01:09:48;;;;;;;20.80;16.30;;;3.50;99.90;;;;;;5071140;28;20253;-76
2022/12/05 01:12:14;;;;;;;20.43;14.17;;;3.60;99.90;;;;;;5070799;28;20305;-76
2022/12/05 01:14:40;;;;;;;22.20;14.23;;;3.50;99.90;;;;;;5070779;28;20208;-76
2022/12/05 01:17:06;;;;;;;20.43;15.20;;;3.60;99.90;;;;;;5070517;28;20176;-76
2022/12/05 01:19:32;;;;;;;22.27;15.57;;;3.60;99.90;;;;;;5070828;28;20189;-76
2022/12/05 01:21:59;;;;;;;23.93;15.23;;;3.60;99.90;;;;;;5085118;28;20942;-77
2022/12/05 01:24:26;;;;;;;21.93;14.90;;;3.60;99.90;;;;;;5073010;28;20684;-77
2022/12/05 01:26:52;;;;;;;23.33;15.17;;;3.60;99.90;;;;;;5072729;28;20180;-75
2022/12/05 01:29:20;;;;;;;25.90;17.03;;;3.70;99.90;;;;;;5064170;28;20640;-77
2022/12/05 01:31:46;;;;;;;22.97;15.87;;;3.70;99.90;;;;;;5053232;28;20216;-77
2022/12/05 01:34:14;;;;;;;26.23;16.73;;;3.70;99.90;;;;;;5074101;28;20260;-74
2022/12/05 01:36:41;;;;;;;22.80;16.50;;;3.80;99.90;;;;;;5074180;28;20268;-76
2022/12/05 01:39:08;;;;;;;19.90;15.33;;;3.70;99.90;;;;;;5078234;28;20640;-76
2022/12/05 01:41:37;;;;;;;22.00;15.40;;;3.70;99.90;;;;;;5090685;28;20226;-76
2022/12/05 01:44:26;;;;;;;23.30;16.87;;;3.70;99.90;;;;;;5075952;28;20180;-76
2022/12/05 01:46:52;;;;;;;21.27;15.50;;;3.70;99.90;;;;;;5076464;28;20183;-75
2022/12/05 01:49:37;;;;;;;20.23;15.27;;;3.70;99.90;;;;;;5088962;28;20180;-76
2022/12/05 01:52:17;;;;;;;21.63;15.40;;;3.70;99.90;;;;;;5088670;28;20214;-75
2022/12/05 01:54:46;;;;;;;20.40;14.93;;;3.70;99.90;;;;;;5093971;28;20207;-75
2022/12/05 01:57:13;;;;;;;20.23;14.97;;;3.70;99.90;;;;;;5076244;28;20204;-75
2022/12/05 01:59:44;;;;;;;20.67;15.20;;;3.70;99.90;;;;;;5084586;28;20239;-74
2022/12/05 02:02:10;;;;;;;22.93;15.33;;;3.70;99.90;;;;;;5074273;28;20708;-74
2022/12/05 02:04:57;;;;;;;22.83;17.07;;;3.70;99.90;;;;;;5057200;28;20223;-75
2022/12/05 02:07:24;;;;;;;22.67;19.17;;;3.70;99.90;;;;;;5079611;28;20181;-75
2022/12/05 02:09:50;;;;;;;28.27;25.50;;;3.70;99.90;;;;;;5084970;28;20568;-73
2022/12/05 02:12:19;;;;;;;28.93;26.13;;;3.70;99.90;;;;;;5094211;28;20234;-75
2022/12/05 02:14:55;;;;;;;27.77;24.90;;;3.70;99.90;;;;;;5094214;28;20211;-76
2022/12/05 02:17:38;;;;;;;40.00;29.13;;;3.70;99.90;;;;;;5075962;28;20203;-75
2022/12/05 02:20:40;;;;;;;26.00;23.30;;;3.70;99.90;;;;;;5081551;28;20181;-76
2022/12/05 02:23:31;;;;;;;23.77;21.30;;;3.70;99.90;;;;;;5056244;28;20200;-75
2022/12/05 02:26:35;;;;;;;21.77;19.53;;;3.70;99.90;;;;;;5073593;28;20184;-75
2022/12/05 02:29:23;;;;;;;21.70;18.43;;;3.70;99.90;;;;;;5057860;28;20188;-75
2022/12/05 02:32:16;;;;;;;19.73;16.50;;;3.60;99.90;;;;;;5056896;28;20218;-75
2022/12/05 02:34:44;;;;;;;22.00;14.37;;;3.60;99.90;;;;;;5055732;28;20305;-76
2022/12/05 02:37:19;;;;;;;30.10;27.40;;;3.60;99.90;;;;;;5073244;28;20182;-76
2022/12/05 02:39:53;;;;;;;32.43;29.63;;;3.50;99.90;;;;;;5071831;28;20188;-75
2022/12/05 02:42:31;;;;;;;25.30;22.70;;;3.50;99.90;;;;;;5093530;28;20210;-75
2022/12/05 02:45:03;;;;;;;21.47;16.33;;;3.50;99.90;;;;;;5093419;28;20645;-75
2022/12/05 02:47:32;;;;;;;21.70;15.33;;;3.50;99.90;;;;;;5075263;28;20195;-76
2022/12/05 02:49:58;;;;;;;21.07;15.63;;;3.50;99.90;;;;;;5057243;28;20231;-76
2022/12/05 02:52:25;;;;;;;20.93;14.57;;;3.50;99.90;;;;;;5055513;28;20200;-76
2022/12/05 02:54:54;;;;;;;23.60;15.33;;;3.50;99.90;;;;;;5072034;28;20580;-76
2022/12/05 02:57:22;;;;;;;23.77;14.53;;;3.60;99.90;;;;;;5054849;28;20658;-75
2022/12/05 02:59:48;;;;;;;21.03;13.80;;;3.60;99.90;;;;;;5091591;28;20181;-74
2022/12/05 03:02:40;;;;;;;25.67;15.33;;;3.60;99.90;;;;;;5080604;28;20193;-74
2022/12/05 03:05:41;;;;;;;21.73;14.10;;;3.60;99.90;;;;;;5089693;28;20189;-76
2022/12/05 03:08:12;;;;;;;24.93;15.03;;;3.60;99.90;;;;;;5071897;28;20193;-76
2022/12/05 03:10:43;;;;;;;23.83;14.97;;;3.60;99.90;;;;;;5054937;28;20189;-75
2022/12/05 03:13:15;;;;;;;20.97;15.07;;;3.60;99.90;;;;;;5072705;28;20204;-76
2022/12/05 03:15:49;;;;;;;24.37;15.27;;;3.70;99.90;;;;;;5055000;28;20191;-76
2022/12/05 03:18:39;;;;;;;21.50;14.20;;;3.70;99.90;;;;;;5057559;28;20659;-76
2022/12/05 03:21:16;;;;;;;21.93;15.23;;;3.70;99.90;;;;;;5076157;28;20183;-76
2022/12/05 03:23:48;;;;;;;23.37;16.37;;;3.70;99.90;;;;;;5095070;28;20192;-75
2022/12/05 03:26:19;;;;;;;23.03;17.20;;;3.70;99.90;;;;;;5093711;28;20241;-76
2022/12/05 03:29:24;;;;;;;24.83;22.20;;;3.70;99.90;;;;;;5092310;28;20205;-76
2022/12/05 03:32:10;;;;;;;26.20;20.63;;;3.70;99.90;;;;;;5056212;28;20219;-75
2022/12/05 03:34:47;;;;;;;29.57;26.70;;;3.70;99.90;;;;;;5071831;28;20203;-76
2022/12/05 03:37:30;;;;;;;33.80;30.53;;;3.70;99.90;;;;;;5054453;28;20227;-74
2022/12/05 03:40:10;;;;;;;32.77;29.77;;;3.70;99.90;;;;;;5054519;28;20237;-76
2022/12/05 03:42:41;;;;;;;30.00;27.07;;;3.70;99.90;;;;;;5072347;28;20293;-76
2022/12/05 03:45:18;;;;;;;27.67;24.80;;;3.80;99.90;;;;;;5087282;28;20321;-75
2022/12/05 03:48:12;;;;;;;24.90;22.23;;;3.80;99.90;;;;;;5074253;28;20184;-75
2022/12/05 03:50:42;;;;;;;25.07;20.17;;;3.80;99.90;;;;;;5092692;28;20564;-75
2022/12/05 03:53:19;;;;;;;26.10;20.33;;;3.80;99.90;;;;;;5091957;28;20202;-74
2022/12/05 03:55:49;;;;;;;24.27;21.67;;;3.90;99.90;;;;;;5081099;28;20192;-75
2022/12/05 03:58:26;;;;;;;28.77;22.13;;;3.90;99.90;;;;;;5075241;28;20181;-76
2022/12/05 04:00:55;;;;;;;27.47;24.43;;;3.80;99.90;;;;;;5091747;28;20180;-76
2022/12/05 04:03:38;;;;;;;29.10;26.30;;;3.80;99.90;;;;;;5054787;28;20200;-75
2022/12/05 04:06:11;;;;;;;39.33;35.87;;;3.80;99.90;;;;;;5070698;28;20650;-76
2022/12/05 04:08:48;;;;;;;39.30;35.57;;;3.80;99.90;;;;;;5071485;28;20196;-76
2022/12/05 04:11:19;;;;;;;38.00;34.37;;;3.90;99.90;;;;;;5071799;28;20181;-74
2022/12/05 04:13:54;;;;;;;38.87;35.27;;;3.90;99.90;;;;;;5076382;28;20184;-75
2022/12/05 04:22:23;;;;;;;20.40;14.17;;;3.90;99.90;;;;;;5091715;28;20265;-76
2022/12/05 04:27:58;;;;;;;22.70;14.80;;;3.90;99.90;;;;;;5093723;28;20181;-75
2022/12/05 04:30:29;;;;;;;20.30;14.93;;;3.90;99.90;;;;;;5079913;28;20180;-74
2022/12/05 04:32:54;;;;;;;20.73;17.00;;;3.90;99.90;;;;;;5093589;28;20212;-75
2022/12/05 04:35:28;;;;;;;26.10;23.40;;;3.90;99.90;;;;;;5091430;28;20203;-75
2022/12/05 04:38:00;;;;;;;31.93;28.97;;;3.90;99.90;;;;;;5091342;28;20216;-75
2022/12/05 04:40:49;;;;;;;42.03;38.43;;;3.90;99.90;;;;;;5091266;28;20180;-75
2022/12/05 04:43:19;;;;;;;40.23;36.63;;;3.90;99.90;;;;;;5033481;28;20205;-77
2022/12/05 04:45:45;;;;;;;29.77;26.87;;;3.90;99.90;;;;;;5053779;28;20180;-77
2022/12/05 04:48:16;;;;;;;32.57;29.73;;;3.90;99.90;;;;;;5053532;28;20539;-77
2022/12/05 04:50:47;;;;;;;29.90;26.70;;;3.90;99.90;;;;;;5076174;28;20189;-76
2022/12/05 04:53:15;;;;;;;32.67;29.87;;;3.80;99.90;;;;;;5042054;28;20581;-76
2022/12/05 04:55:46;;;;;;;41.87;38.70;;;3.80;99.90;;;;;;5070220;28;20189;-76
2022/12/05 04:58:18;;;;;;;44.13;40.37;;;3.90;99.90;;;;;;5070552;28;20600;-75
2022/12/05 05:01:07;;;;;;;35.43;32.17;;;3.90;99.90;;;;;;5053105;28;20188;-76
2022/12/05 05:04:01;;;;;;;29.27;25.70;;;3.90;99.90;;;;;;5052908;28;20208;-76
2022/12/05 05:06:27;;;;;;;24.10;19.03;;;3.90;99.90;;;;;;5072083;28;20176;-75
2022/12/05 05:08:55;;;;;;;29.07;20.07;;;3.90;99.90;;;;;;5052356;28;20204;-76
2022/12/05 05:11:22;;;;;;;25.53;22.77;;;3.90;99.90;;;;;;5070690;28;20271;-76
2022/12/05 05:13:48;;;;;;;23.03;20.63;;;3.90;99.90;;;;;;5070989;28;20180;-76
2022/12/05 05:16:27;;;;;;;23.00;18.60;;;4.00;99.90;;;;;;5052747;28;20193;-75
2022/12/05 05:18:53;;;;;;;25.97;19.13;;;4.00;99.90;;;;;;5069019;28;20808;-76
2022/12/05 05:21:28;;;;;;;25.90;23.10;;;3.90;99.90;;;;;;5069832;28;20199;-76
2022/12/05 05:23:54;;;;;;;28.50;25.67;;;3.90;99.90;;;;;;5076471;28;20278;-76
2022/12/05 05:26:21;;;;;;;32.53;29.13;;;4.00;99.90;;;;;;5071030;28;20596;-76
2022/12/05 05:28:48;;;;;;;22.07;17.33;;;4.00;99.90;;;;;;5047711;28;20188;-75
2022/12/05 05:31:15;;;;;;;22.40;17.27;;;4.00;99.90;;;;;;5050384;28;20190;-76
2022/12/05 05:33:41;;;;;;;23.83;19.07;;;4.00;99.90;;;;;;5050770;28;20216;-76
2022/12/05 05:36:09;;;;;;;29.13;26.13;;;4.00;99.90;;;;;;5050248;28;20532;-76
2022/12/05 05:38:40;;;;;;;30.63;27.77;;;4.00;99.90;;;;;;5061341;28;20192;-75
2022/12/05 05:41:11;;;;;;;27.63;24.93;;;4.00;99.90;;;;;;5105309;28;20184;-74
2022/12/05 05:43:39;;;;;;;28.23;25.60;;;4.10;99.90;;;;;;5099274;28;20292;-76
2022/12/05 05:46:05;;;;;;;35.20;32.13;;;4.00;99.90;;;;;;5072601;28;20177;-76
2022/12/05 05:48:30;;;;;;;40.90;36.53;;;4.00;99.90;;;;;;5086091;28;20539;-75
2022/12/05 05:51:00;;;;;;;35.53;32.40;;;4.00;99.90;;;;;;5070047;28;20185;-75
2022/12/05 05:53:26;;;;;;;37.80;34.47;;;4.00;99.90;;;;;;5052472;28;20208;-76
2022/12/05 05:55:52;;;;;;;41.13;37.63;;;4.00;99.90;;;;;;5069960;28;20185;-76
2022/12/05 05:58:18;;;;;;;43.07;39.60;;;4.10;99.90;;;;;;5053041;28;20216;-75
2022/12/05 06:00:43;;;;;;;42.07;38.47;;;4.10;99.90;;;;;;5075072;28;20264;-76
2022/12/05 06:03:09;;;;;;;39.03;35.93;;;4.10;99.90;;;;;;5090447;28;20200;-75
2022/12/05 06:05:35;;;;;;;36.47;33.57;;;4.10;99.90;;;;;;5090185;28;20307;-77
2022/12/05 06:08:01;;;;;;;39.67;35.83;;;4.10;99.90;;;;;;5089711;28;20181;-76
2022/12/05 06:10:28;;;;;;;41.77;38.00;;;4.10;99.90;;;;;;5074336;28;20180;-74
2022/12/05 06:12:55;;;;;;;35.50;32.27;;;4.20;99.90;;;;;;5056143;28;20572;-75
2022/12/05 06:15:21;;;;;;;31.97;28.77;;;4.10;99.90;;;;;;5071238;28;20186;-76
2022/12/05 06:17:47;;;;;;;33.10;30.07;;;4.10;99.90;;;;;;5069940;28;20203;-76
2022/12/05 06:20:13;;;;;;;40.40;36.87;;;4.10;99.90;;;;;;5069029;28;20173;-76
2022/12/05 06:22:39;;;;;;;43.20;39.70;;;4.10;99.90;;;;;;5071613;28;20337;-76
2022/12/05 06:25:05;;;;;;;37.50;34.43;;;4.10;99.90;;;;;;5072722;28;20201;-76
2022/12/05 06:27:31;;;;;;;33.63;30.57;;;4.10;99.90;;;;;;5091184;28;20181;-76
2022/12/05 06:29:57;;;;;;;29.63;26.50;;;4.20;99.90;;;;;;5072736;28;20172;-75
2022/12/05 06:32:22;;;;;;;28.23;24.93;;;4.20;99.90;;;;;;5087295;23;20226;-75
2022/12/05 06:34:48;;;;;;;28.57;25.60;;;4.10;99.90;;;;;;5051990;28;20222;-76
2022/12/05 06:37:14;;;;;;;27.23;22.90;;;4.10;99.90;;;;;;5052198;28;20178;-74
2022/12/05 06:39:40;;;;;;;27.17;18.20;;;4.20;99.90;;;;;;5065666;28;20238;-76
2022/12/05 06:42:06;;;;;;;29.23;18.00;;;4.20;99.90;;;;;;5058408;28;20213;-75
2022/12/05 06:44:32;;;;;;;21.43;16.83;;;4.20;99.90;;;;;;5058656;28;20232;-77
2022/12/05 06:46:57;;;;;;;23.60;15.93;;;4.20;99.90;;;;;;5061269;28;20197;-77
2022/12/05 06:49:25;;;;;;;19.53;14.73;;;4.10;99.90;;;;;;5059796;28;20170;-77
2022/12/05 06:51:54;;;;;;;20.13;14.43;;;4.20;99.90;;;;;;5057732;28;20177;-77
2022/12/05 06:54:20;;;;;;;20.03;14.60;;;4.10;99.90;;;;;;5057106;28;20265;-79
2022/12/05 06:56:45;;;;;;;20.53;13.73;;;4.10;99.90;;;;;;5067000;28;20701;-77
2022/12/05 06:59:11;;;;;;;26.43;15.30;;;4.10;99.90;;;;;;5058146;28;20185;-77
2022/12/05 07:01:37;;;;;;;23.80;15.50;;;4.20;99.90;;;;;;5058348;28;20235;-77
2022/12/05 07:04:05;;;;;;;21.40;14.90;;;4.10;99.90;;;;;;5056454;28;20222;-77
2022/12/05 07:06:32;;;;;;;19.80;14.10;;;4.10;99.90;;;;;;5055352;28;20171;-76
2022/12/05 07:08:58;;;;;;;22.83;14.70;;;4.20;99.90;;;;;;5053109;28;20273;-69
2022/12/05 07:11:24;;;;;;;25.60;15.20;;;4.20;99.90;;;;;;5050763;28;20268;-70
2022/12/05 07:13:50;;;;;;;21.50;14.97;;;4.20;99.90;;;;;;5051639;28;20259;-70
2022/12/05 07:16:15;;;;;;;24.27;16.87;;;4.30;99.90;;;;;;5052243;28;20269;-70
2022/12/05 07:18:41;;;;;;;22.87;15.97;;;4.30;99.90;;;;;;5051161;28;20251;-70
2022/12/05 07:21:12;;;;;;;23.97;14.73;;;4.20;99.90;;;;;;5057108;28;20189;-80
2022/12/05 07:23:38;;;;;;;21.23;16.87;;;4.30;99.90;;;;;;5063355;28;20300;-79
2022/12/05 07:26:08;;;;;;;22.77;17.87;;;4.30;99.90;;;;;;5064891;28;20177;-79
2022/12/05 07:28:34;;;;;;;22.90;19.50;;;4.30;99.90;;;;;;5062704;28;20177;-79
2022/12/05 07:31:09;;;;;;;27.23;23.63;;;4.40;99.90;;;;;;5062750;28;20202;-80
2022/12/05 07:33:36;;;;;;;30.83;28.10;;;4.40;99.90;;;;;;5062142;28;20226;-79
2022/12/05 07:36:05;;;;;;;37.00;33.70;;;4.40;99.90;;;;;;5065617;28;20348;-79
2022/12/05 07:38:32;;;;;;;37.73;34.43;;;4.40;99.90;;;;;;5063253;28;20255;-79
2022/12/05 07:40:58;;;;;;;41.23;37.87;;;4.40;99.90;;;;;;5061357;28;20178;-79
2022/12/05 07:43:24;;;;;;;38.23;34.87;;;4.40;99.90;;;;;;5062453;28;20234;-80
2022/12/05 07:45:50;;;;;;;38.40;34.97;;;4.40;99.90;;;;;;5060988;28;20196;-79
2022/12/05 07:48:16;;;;;;;34.40;31.07;;;4.50;99.90;;;;;;5061768;28;20185;-79
2022/12/05 07:50:42;;;;;;;35.97;32.20;;;4.50;99.90;;;;;;5049533;28;20190;-77
2022/12/05 07:53:08;;;;;;;34.30;31.17;;;4.60;99.90;;;;;;5067814;28;20685;-80
2022/12/05 07:55:36;;;;;;;35.47;32.00;;;4.60;99.90;;;;;;5060206;28;20194;-80
2022/12/05 07:58:02;;;;;;;36.73;32.93;;;4.60;99.90;;;;;;5054471;28;20190;-80
2022/12/05 08:00:28;;;;;;;37.03;33.83;;;4.60;99.90;;;;;;5052838;28;20244;-80
2022/12/05 08:02:54;;;;;;;50.47;46.47;;;4.60;99.90;;;;;;5066792;28;20202;-80
2022/12/05 08:05:20;;;;;;;37.63;34.37;;;4.60;99.90;;;;;;5064404;28;20210;-80
2022/12/05 08:07:45;;;;;;;35.20;31.90;;;4.60;99.90;;;;;;5075189;28;20218;-79
2022/12/05 08:10:11;;;;;;;27.63;24.93;;;4.60;99.90;;;;;;5073625;28;20220;-80
2022/12/05 08:12:37;;;;;;;27.20;24.50;;;4.70;99.90;;;;;;5060360;28;20208;-80
2022/12/05 08:15:04;;;;;;;25.67;23.07;;;4.70;99.90;;;;;;5058150;28;20189;-80
2022/12/05 08:17:31;;;;;;;25.90;22.93;;;4.90;99.90;;;;;;5058823;28;20182;-80
2022/12/05 08:19:57;;;;;;;23.03;19.80;;;5.00;99.90;;;;;;5061358;28;20261;-81
2022/12/05 08:22:23;;;;;;;23.57;14.27;;;5.20;99.90;;;;;;5060021;28;20221;-80
2022/12/05 08:24:49;;;;;;;22.33;13.70;;;5.30;99.90;;;;;;5056969;28;20238;-81
2022/12/05 08:27:15;;;;;;;26.67;14.40;;;5.30;99.90;;;;;;5057614;28;20185;-77
2022/12/05 08:29:42;;;;;;;22.03;15.73;;;5.50;99.90;;;;;;5052606;28;20174;-77
2022/12/05 08:32:08;;;;;;;18.10;14.90;;;5.50;99.90;;;;;;5050689;28;20240;-76
2022/12/05 08:34:34;;;;;;;20.57;18.40;;;5.50;99.90;;;;;;5049942;28;20194;-77
2022/12/05 08:36:59;;;;;;;20.97;18.70;;;5.40;99.90;;;;;;5050416;28;20182;-77
2022/12/05 08:39:26;;;;;;;20.73;18.63;;;5.40;99.90;;;;;;5050739;28;20629;-78
2022/12/05 08:41:52;;;;;;;21.67;19.47;;;5.30;99.90;;;;;;5050061;28;20242;-69
2022/12/05 08:44:19;;;;;;;21.67;19.37;;;5.30;99.90;;;;;;5052599;28;20210;-78
2022/12/05 08:46:47;;;;;;;28.27;19.40;;;5.30;99.90;;;;;;5057222;28;20201;-80
2022/12/05 08:49:14;;;;;;;22.10;19.40;;;5.40;99.90;;;;;;5056898;28;20166;-80
2022/12/05 08:51:41;;;;;;;23.60;21.27;;;5.40;99.90;;;;;;5056972;28;20269;-79
2022/12/05 08:54:07;;;;;;;23.57;20.53;;;5.50;99.90;;;;;;5055989;28;20736;-79
2022/12/05 08:56:33;;;;;;;23.60;20.67;;;5.60;99.90;;;;;;5056570;28;20236;-80
2022/12/05 08:59:01;;;;;;;22.23;20.23;;;5.80;99.90;;;;;;5052032;28;20182;-77
2022/12/05 09:01:30;;;;;;;23.20;20.37;;;5.90;99.90;;;;;;5053976;28;20293;-78
2022/12/05 09:03:59;;;;;;;42.73;39.43;;;6.10;99.90;;;;;;5052945;28;20201;-78
2022/12/05 09:06:26;;;;;;;19.20;15.50;;;6.20;99.90;;;;;;5058415;28;20212;-78
2022/12/05 09:08:59;;;;;;;15.90;12.70;;;6.30;99.90;;;;;;5057541;28;20178;-78
2022/12/05 09:11:30;;;;;;;17.17;15.43;;;6.30;99.90;;;;;;5053059;28;20177;-79
2022/12/05 09:13:58;;;;;;;19.17;16.90;;;6.30;99.90;;;;;;5054542;28;20202;-78
2022/12/05 09:16:28;;;;;;;19.83;17.87;;;6.30;99.90;;;;;;5038580;28;20187;-78
2022/12/05 09:18:55;;;;;;;21.30;19.17;;;6.30;99.90;;;;;;5055998;28;20186;-77
2022/12/05 09:21:23;;;;;;;22.63;20.50;;;6.30;99.90;;;;;;5053413;28;20281;-78
2022/12/05 09:23:50;;;;;;;21.07;19.17;;;6.40;99.90;;;;;;5047108;28;20581;-77
2022/12/05 09:26:21;;;;;;;22.03;17.70;;;6.40;99.90;;;;;;5051098;28;20221;-78
2022/12/05 09:28:48;;;;;;;18.73;16.93;;;6.40;99.90;;;;;;5056271;28;20184;-77
2022/12/05 09:31:16;;;;;;;18.10;16.20;;;6.50;99.90;;;;;;5053825;28;20594;-77
2022/12/05 09:33:42;;;;;;;16.60;13.93;;;6.50;99.90;;;;;;5057553;28;20222;-75
2022/12/05 09:36:15;;;;;;;16.23;13.20;;;6.50;99.90;;;;;;5057345;28;20560;-77
2022/12/05 09:38:42;;;;;;;15.73;13.07;;;6.40;99.90;;;;;;5054619;28;20208;-77
2022/12/05 09:44:20;;;;;;;13.90;11.77;;;6.50;99.90;;;;;;5053971;28;20212;-78
2022/12/05 09:47:00;;;;;;;18.70;14.67;;;6.40;99.90;;;;;;5047386;28;20174;-78
2022/12/05 09:49:27;;;;;;;20.50;18.50;;;6.30;99.90;;;;;;5048803;28;20182;-79
2022/12/05 09:51:54;;;;;;;24.03;21.83;;;6.20;99.90;;;;;;5053138;28;20174;-80
2022/12/05 09:54:21;;;;;;;31.37;28.77;;;6.20;99.90;;;;;;5056363;28;20670;-78
2022/12/05 09:56:50;;;;;;;35.27;32.37;;;6.10;99.90;;;;;;5055291;28;20193;-78
2022/12/05 09:59:19;;;;;;;35.23;32.23;;;6.00;99.90;;;;;;5062368;28;20213;-78
2022/12/05 10:01:51;;;;;;;31.33;28.50;;;6.00;99.90;;;;;;5064434;28;20182;-78
2022/12/05 10:04:33;;;;;;;28.47;26.03;;;5.90;99.90;;;;;;5063257;28;20217;-80
2022/12/05 10:07:27;;;;;;;21.47;19.47;;;5.90;99.90;;;;;;5058108;28;20178;-80
2022/12/05 10:09:58;;;;;;;17.87;13.97;;;5.70;99.90;;;;;;5059646;28;20248;-79
2022/12/05 10:12:43;;;;;;;17.40;13.33;;;5.70;99.90;;;;;;5056732;28;20241;-79
2022/12/05 10:15:14;;;;;;;18.30;13.37;;;5.70;99.90;;;;;;5056572;28;20639;-79
2022/12/05 10:17:46;;;;;;;17.20;12.50;;;5.70;99.90;;;;;;5035331;28;20190;-77
2022/12/05 10:20:28;;;;;;;19.47;12.87;;;5.80;99.90;;;;;;5034353;28;20193;-77
2022/12/05 10:23:11;;;;;;;15.47;13.63;;;5.80;99.90;;;;;;5042654;28;20207;-77
2022/12/05 10:25:38;;;;;;;21.27;19.27;;;5.80;99.90;;;;;;5043795;28;20218;-76
2022/12/05 10:28:14;;;;;;;21.97;19.67;;;5.90;99.90;;;;;;5058445;28;20175;-77
2022/12/05 10:30:41;;;;;;;22.00;19.83;;;5.90;99.90;;;;;;5052875;28;20509;-77
2022/12/05 10:33:17;;;;;;;17.53;15.73;;;5.90;99.90;;;;;;5054951;28;20210;-76
2022/12/05 10:35:43;;;;;;;14.90;11.77;;;6.00;99.90;;;;;;5051970;28;20670;-77
2022/12/05 10:38:25;;;;;;;17.07;12.60;;;6.00;99.90;;;;;;5040359;28;20213;-77
2022/12/05 10:40:57;;;;;;;17.53;12.43;;;6.00;99.90;;;;;;5036582;28;20187;-77
2022/12/05 10:43:26;;;;;;;17.13;13.20;;;6.10;99.90;;;;;;5035453;28;20537;-77
2022/12/05 10:45:52;;;;;;;17.63;13.53;;;6.20;99.90;;;;;;5038342;28;20198;-76
2022/12/05 10:48:19;;;;;;;16.73;14.00;;;6.20;99.90;;;;;;5053129;28;20189;-76
2022/12/05 10:50:48;;;;;;;17.23;14.60;;;6.30;99.90;;;;;;5051421;28;20621;-76
2022/12/05 10:53:24;;;;;;;18.87;16.80;;;6.30;99.90;;;;;;5045769;28;20198;-77
2022/12/05 10:55:50;;;;;;;20.73;15.73;;;6.30;99.90;;;;;;5044224;28;20743;-76
2022/12/05 10:58:22;;;;;;;15.97;14.33;;;6.30;99.90;;;;;;5051600;28;20258;-76
2022/12/05 11:00:55;;;;;;;14.03;12.53;;;6.20;99.90;;;;;;5051652;28;20181;-76
2022/12/05 11:03:27;;;;;;;15.63;11.97;;;6.20;99.90;;;;;;5031314;28;20206;-77
2022/12/05 11:05:56;;;;;;;17.57;11.63;;;6.20;99.90;;;;;;5039801;28;20202;-76
2022/12/05 11:08:25;;;;;;;20.07;16.23;;;6.20;99.90;;;;;;5051358;28;20183;-76
2022/12/05 11:11:14;;;;;;;20.10;16.57;;;6.20;99.90;;;;;;5053284;28;20186;-76
2022/12/05 11:13:54;;;;;;;16.67;13.43;;;6.20;99.90;;;;;;5051008;28;20195;-76
2022/12/05 11:16:31;;;;;;;15.97;13.47;;;6.30;99.90;;;;;;5050264;28;20174;-74
2022/12/05 11:19:19;;;;;;;17.93;16.13;;;6.40;99.90;;;;;;5052425;28;20183;-75
2022/12/05 11:21:46;;;;;;;18.73;16.93;;;6.70;99.90;;;;;;5051290;28;20202;-73
2022/12/05 11:24:27;;;;;;;16.67;13.10;;;6.80;99.90;;;;;;5051449;28;20580;-74
2022/12/05 11:26:54;;;;;;;16.63;12.13;;;7.00;99.90;;;;;;5052000;28;20190;-74
2022/12/05 11:29:37;;;;;;;14.70;12.60;;;7.20;99.90;;;;;;5051559;28;20178;-73
2022/12/05 11:32:05;;;;;;;14.27;11.60;;;7.20;99.90;;;;;;5051066;28;20724;-75
2022/12/05 11:34:38;;;;;;;17.57;13.07;;;7.20;99.90;;;;;;5053035;28;20178;-76
2022/12/05 11:37:14;;;;;;;13.13;11.23;;;7.20;99.90;;;;;;5053354;28;20664;-75
2022/12/05 11:39:40;;;;;;;15.60;11.60;;;7.10;99.90;;;;;;5054182;28;20223;-76
2022/12/05 11:42:31;;;;;;;17.27;12.20;;;7.00;99.90;;;;;;5051450;28;20276;-75
2022/12/05 11:45:11;;;;;;;14.40;12.07;;;7.00;99.90;;;;;;5051283;28;20210;-76
2022/12/05 11:47:58;;;;;;;14.83;11.37;;;7.00;99.90;;;;;;5034758;28;20183;-78
2022/12/05 11:51:07;;;;;;;14.07;11.67;;;7.00;99.90;;;;;;5041035;28;20185;-78
2022/12/05 11:53:54;;;;;;;18.90;17.20;;;7.00;99.90;;;;;;4994419;28;20716;-75
2022/12/05 11:56:27;;;;;;;19.23;17.57;;;7.00;99.90;;;;;;5042163;28;20646;-76
2022/12/05 11:59:11;;;;;;;19.53;18.00;;;7.10;99.90;;;;;;5052971;28;20273;-75
2022/12/05 12:01:37;;;;;;;17.03;15.17;;;7.30;99.90;;;;;;5052017;28;20202;-74
2022/12/05 12:04:42;;;;;;;12.93;11.60;;;7.50;99.90;;;;;;5051765;28;20713;-75
2022/12/05 12:07:19;;;;;;;13.93;10.53;;;7.70;99.90;;;;;;5045265;28;20194;-74
2022/12/05 12:10:15;;;;;;;12.60;10.90;;;7.90;99.90;;;;;;5032275;28;20206;-74
2022/12/05 12:13:03;;;;;;;23.20;21.37;;;8.00;99.90;;;;;;5031007;28;20199;-74
2022/12/05 12:15:47;;;;;;;26.60;24.40;;;8.10;99.90;;;;;;5035783;28;20198;-74
2022/12/05 12:18:45;;;;;;;20.60;18.87;;;8.10;99.90;;;;;;5040389;28;20198;-74
2022/12/05 12:21:20;;;;;;;14.30;13.00;;;8.10;99.90;;;;;;5048525;28;20189;-74
2022/12/05 12:24:04;;;;;;;11.87;10.63;;;8.10;99.90;;;;;;5052493;28;20212;-75
2022/12/05 12:26:42;;;;;;;13.57;11.23;;;8.20;99.90;;;;;;5052693;28;20252;-75
2022/12/05 12:29:14;;;;;;;11.27;10.07;;;8.10;99.90;;;;;;5049862;28;20210;-75
2022/12/05 12:31:58;;;;;;;14.87;13.33;;;7.90;99.90;;;;;;5051531;28;20189;-75
2022/12/05 12:34:44;;;;;;;26.50;24.50;;;7.80;99.90;;;;;;5051369;28;20193;-77
2022/12/05 12:37:25;;;;;;;34.57;31.97;;;7.80;99.90;;;;;;5057171;28;20619;-77
2022/12/05 12:40:12;;;;;;;36.57;34.10;;;7.90;99.90;;;;;;5059424;28;20206;-76
2022/12/05 12:43:12;;;;;;;32.30;30.00;;;7.90;99.90;;;;;;5054439;28;20644;-75
2022/12/05 12:45:53;;;;;;;20.07;18.40;;;8.00;99.90;;;;;;5054520;28;20239;-75
2022/12/05 12:48:29;;;;;;;20.30;18.00;;;8.00;99.90;;;;;;5054921;28;20263;-75
2022/12/05 12:50:57;;;;;;;22.60;20.60;;;8.00;99.90;;;;;;5058967;28;20174;-77
2022/12/05 12:53:51;;;;;;;17.97;16.10;;;8.00;99.90;;;;;;5054154;28;20205;-77
2022/12/05 12:56:24;;;;;;;13.07;11.03;;;7.90;99.90;;;;;;5042601;28;20193;-75
2022/12/05 12:59:08;;;;;;;15.90;10.03;;;7.90;99.90;;;;;;5048189;28;20186;-77
2022/12/05 13:01:39;;;;;;;14.73;13.17;;;7.70;99.90;;;;;;5036027;28;20187;-77
2022/12/05 13:04:11;;;;;;;19.30;17.47;;;7.60;99.90;;;;;;5033759;28;20207;-77
2022/12/05 13:06:49;;;;;;;30.40;27.93;;;7.50;99.90;;;;;;5047119;28;20232;-77
2022/12/05 13:09:25;;;;;;;30.80;28.70;;;7.40;99.90;;;;;;5055972;28;20227;-77
2022/12/05 13:11:53;;;;;;;31.40;28.90;;;7.30;99.90;;;;;;5056350;28;20181;-77